Time;durP1;ratioP1;P1;durP2;ratioP2;P2;SDS_P1;SDS_P2;PMS_P1;PMS_P2;Temp;Humidity;BMP_temperature;BMP_pressure;BME280_temperature;BME280_humidity;BME280_pressure;Samples;Min_cycle;Max_cycle;Signal;HPM_P1;HPM_P2
2021/12/29 00:01:49;;;;;;;2.50;0.80;;;;;;;;;;5098352;28;20970;-74
2021/12/29 00:04:16;;;;;;;3.00;1.17;;;;;;;;;;5098288;28;20903;-74
2021/12/29 00:06:42;;;;;;;2.73;1.20;;;;;;;;;;5099488;28;20434;-74
2021/12/29 00:09:09;;;;;;;3.30;1.20;;;;;;;;;;5099630;28;21011;-74
2021/12/29 00:11:38;;;;;;;3.00;1.20;;;;;;;;;;5099608;28;20391;-71
2021/12/29 00:14:04;;;;;;;1.30;0.90;;;;;;;;;;5099510;28;20467;-74
2021/12/29 00:16:34;;;;;;;3.40;1.23;;;;;;;;;;5098161;28;20415;-74
2021/12/29 00:19:00;;;;;;;1.33;1.20;;;;;;;;;;5099392;28;20433;-75
2021/12/29 00:21:26;;;;;;;5.90;0.93;;;;;;;;;;5098069;28;20468;-74
2021/12/29 00:23:58;;;;;;;1.40;1.00;;;;;;;;;;5099553;28;20494;-74
2021/12/29 00:26:25;;;;;;;2.00;0.83;;;;;;;;;;5098121;28;21077;-74
2021/12/29 00:28:51;;;;;;;1.00;0.70;;;;;;;;;;5099315;28;20404;-74
2021/12/29 00:31:17;;;;;;;2.40;0.93;;;;;;;;;;5095862;28;20406;-74
2021/12/29 00:33:43;;;;;;;1.80;0.90;;;;;;;;;;5095983;28;20489;-74
2021/12/29 00:36:09;;;;;;;3.37;1.30;;;;;;;;;;5096061;28;20416;-74
2021/12/29 00:38:35;;;;;;;3.70;1.30;;;;;;;;;;5095917;28;20486;-74
2021/12/29 00:41:01;;;;;;;2.30;1.03;;;;;;;;;;5094736;28;20810;-74
2021/12/29 00:43:27;;;;;;;3.57;0.90;;;;;;;;;;5095914;28;20412;-74
2021/12/29 00:45:53;;;;;;;2.17;1.33;;;;;;;;;;5095840;28;20418;-74
2021/12/29 00:48:20;;;;;;;3.90;1.00;;;;;;;;;;5094652;28;20783;-74
2021/12/29 00:50:46;;;;;;;3.40;1.30;;;;;;;;;;5094564;28;20501;-74
2021/12/29 00:53:13;;;;;;;1.90;1.10;;;;;;;;;;5094527;28;20478;-73
2021/12/29 00:55:39;;;;;;;2.67;1.00;;;;;;;;;;5095831;28;20421;-74
2021/12/29 00:58:09;;;;;;;0.80;0.70;;;;;;;;;;5094209;28;21033;-72
2021/12/29 01:00:37;;;;;;;1.00;0.73;;;;;;;;;;5095578;28;20414;-73
2021/12/29 01:03:04;;;;;;;2.60;0.87;;;;;;;;;;5095510;28;20522;-75
2021/12/29 01:05:31;;;;;;;1.00;0.60;;;;;;;;;;5094137;28;20445;-74
2021/12/29 01:07:57;;;;;;;2.10;1.33;;;;;;;;;;5094284;28;20434;-73
2021/12/29 01:10:23;;;;;;;1.93;1.03;;;;;;;;;;5095403;28;20446;-74
2021/12/29 01:12:58;;;;;;;2.20;0.87;;;;;;;;;;5095187;28;20459;-74
2021/12/29 01:15:31;;;;;;;1.53;0.97;;;;;;;;;;5095421;28;20394;-73
2021/12/29 01:17:58;;;;;;;2.03;0.80;;;;;;;;;;5095452;28;20408;-72
2021/12/29 01:20:24;;;;;;;2.00;0.80;;;;;;;;;;5093887;28;20402;-71
2021/12/29 01:22:50;;;;;;;1.27;0.77;;;;;;;;;;5093930;28;20416;-73
2021/12/29 01:25:17;;;;;;;2.03;0.60;;;;;;;;;;5095174;28;20491;-73
2021/12/29 01:27:43;;;;;;;2.00;0.73;;;;;;;;;;5095154;28;20445;-73
2021/12/29 01:30:10;;;;;;;0.80;0.73;;;;;;;;;;5093858;28;20431;-72
2021/12/29 01:32:40;;;;;;;1.40;0.67;;;;;;;;;;5094895;28;20542;-74
2021/12/29 01:35:07;;;;;;;1.60;0.77;;;;;;;;;;5093612;28;20431;-73
2021/12/29 01:37:33;;;;;;;2.10;1.53;;;;;;;;;;5094874;28;20383;-74
2021/12/29 01:39:59;;;;;;;1.23;0.90;;;;;;;;;;5094665;28;20744;-74
2021/12/29 01:42:25;;;;;;;1.73;0.80;;;;;;;;;;5094562;28;20491;-74
2021/12/29 01:44:51;;;;;;;1.70;1.07;;;;;;;;;;5093411;28;20457;-72
2021/12/29 01:47:27;;;;;;;2.10;0.73;;;;;;;;;;5094676;28;20408;-72
2021/12/29 01:49:53;;;;;;;1.63;0.80;;;;;;;;;;5094636;28;20403;-71
2021/12/29 01:52:24;;;;;;;1.03;0.77;;;;;;;;;;5094637;28;20416;-72
2021/12/29 01:54:50;;;;;;;4.30;0.80;;;;;;;;;;5094538;28;20408;-71
2021/12/29 01:57:16;;;;;;;1.07;0.60;;;;;;;;;;5094458;28;20400;-72
2021/12/29 01:59:42;;;;;;;2.00;0.73;;;;;;;;;;5092969;28;20495;-72
2021/12/29 02:02:08;;;;;;;1.13;0.83;;;;;;;;;;5094414;28;20400;-72
2021/12/29 02:04:35;;;;;;;1.23;0.60;;;;;;;;;;5094312;28;20477;-72
2021/12/29 02:07:01;;;;;;;2.77;2.37;;;;;;;;;;5094245;28;20830;-72
2021/12/29 02:09:28;;;;;;;3.57;0.87;;;;;;;;;;5093062;28;20496;-72
2021/12/29 02:11:54;;;;;;;1.67;0.70;;;;;;;;;;5094236;28;20493;-70
2021/12/29 02:14:20;;;;;;;1.00;0.90;;;;;;;;;;5093968;28;20510;-69
2021/12/29 02:16:46;;;;;;;2.00;0.70;;;;;;;;;;5094094;28;20404;-73
2021/12/29 02:19:13;;;;;;;0.80;0.50;;;;;;;;;;5092761;28;20407;-73
2021/12/29 02:21:42;;;;;;;2.40;0.70;;;;;;;;;;5094129;28;20768;-73
2021/12/29 02:26:36;;;;;;;0.77;0.50;;;;;;;;;;5093985;28;20410;-73
2021/12/29 02:29:03;;;;;;;0.70;0.60;;;;;;;;;;5093979;28;20408;-74
2021/12/29 02:31:29;;;;;;;3.53;0.70;;;;;;;;;;5093903;28;20918;-71
2021/12/29 02:33:56;;;;;;;0.60;0.50;;;;;;;;;;5092497;28;20982;-72
2021/12/29 02:36:22;;;;;;;0.60;0.60;;;;;;;;;;5093861;28;20477;-72
2021/12/29 02:38:53;;;;;;;1.43;0.80;;;;;;;;;;5092379;28;20420;-70
2021/12/29 02:41:19;;;;;;;1.27;0.60;;;;;;;;;;5093852;28;20403;-70
2021/12/29 02:43:46;;;;;;;0.93;0.60;;;;;;;;;;5093647;28;20468;-69
2021/12/29 02:46:13;;;;;;;0.80;0.53;;;;;;;;;;5093833;28;20494;-70
2021/12/29 02:48:44;;;;;;;2.53;0.60;;;;;;;;;;5093695;28;20400;-70
2021/12/29 02:51:10;;;;;;;0.60;0.50;;;;;;;;;;5093714;28;20415;-71
2021/12/29 02:53:36;;;;;;;0.60;0.60;;;;;;;;;;5091589;28;20559;-70
2021/12/29 02:56:04;;;;;;;1.23;0.60;;;;;;;;;;5093496;28;20478;-72
2021/12/29 02:58:31;;;;;;;1.23;0.60;;;;;;;;;;5092081;28;20596;-71
2021/12/29 03:00:58;;;;;;;1.00;0.50;;;;;;;;;;5093459;28;20405;-73
2021/12/29 03:03:25;;;;;;;1.57;0.60;;;;;;;;;;5092142;28;20412;-71
2021/12/29 03:05:52;;;;;;;2.67;0.90;;;;;;;;;;5093328;28;20515;-71
2021/12/29 03:08:19;;;;;;;1.07;0.60;;;;;;;;;;5093221;28;20411;-71
2021/12/29 03:10:45;;;;;;;1.90;0.50;;;;;;;;;;5092111;28;20412;-70
2021/12/29 03:13:12;;;;;;;0.70;0.50;;;;;;;;;;5093241;28;20471;-71
2021/12/29 03:15:38;;;;;;;1.37;0.60;;;;;;;;;;5092010;28;20426;-71
2021/12/29 03:18:05;;;;;;;0.80;0.60;;;;;;;;;;5093247;28;20741;-70
2021/12/29 03:20:31;;;;;;;1.93;0.70;;;;;;;;;;5091976;28;20400;-73
2021/12/29 03:22:58;;;;;;;1.23;0.70;;;;;;;;;;5092064;28;20486;-73
2021/12/29 03:25:24;;;;;;;1.50;0.63;;;;;;;;;;5093148;28;20400;-73
2021/12/29 03:27:51;;;;;;;0.70;0.60;;;;;;;;;;5091808;28;20490;-71
2021/12/29 03:30:17;;;;;;;2.20;0.63;;;;;;;;;;5093225;28;20492;-71
2021/12/29 03:32:50;;;;;;;0.93;0.50;;;;;;;;;;5093106;28;20457;-70
2021/12/29 03:35:17;;;;;;;1.10;0.57;;;;;;;;;;5093101;28;20425;-70
2021/12/29 03:37:43;;;;;;;0.70;0.57;;;;;;;;;;5092532;28;20419;-71
2021/12/29 03:40:09;;;;;;;1.37;0.50;;;;;;;;;;5093074;28;20491;-70
2021/12/29 03:42:35;;;;;;;0.60;0.50;;;;;;;;;;5093023;28;20730;-71
2021/12/29 03:45:01;;;;;;;0.90;0.63;;;;;;;;;;5091789;28;20412;-71
2021/12/29 03:47:27;;;;;;;1.53;0.57;;;;;;;;;;5092933;28;20522;-70
2021/12/29 03:49:53;;;;;;;0.80;0.50;;;;;;;;;;5092969;28;20479;-71
2021/12/29 03:52:19;;;;;;;1.00;0.50;;;;;;;;;;5092778;28;20924;-70
2021/12/29 03:54:45;;;;;;;0.70;0.60;;;;;;;;;;5091645;28;20419;-70
2021/12/29 03:57:11;;;;;;;0.60;0.50;;;;;;;;;;5092750;28;20414;-70
2021/12/29 03:59:37;;;;;;;0.53;0.40;;;;;;;;;;5092651;28;20465;-71
2021/12/29 04:02:04;;;;;;;0.80;0.70;;;;;;;;;;5091555;28;20469;-71
2021/12/29 04:04:30;;;;;;;0.60;0.50;;;;;;;;;;5092932;28;20403;-73
2021/12/29 04:06:56;;;;;;;1.07;0.57;;;;;;;;;;5096606;28;20415;-73
2021/12/29 04:09:22;;;;;;;1.00;0.60;;;;;;;;;;5095329;28;20446;-73
2021/12/29 04:11:50;;;;;;;0.50;0.40;;;;;;;;;;5095366;28;20423;-74
2021/12/29 04:14:20;;;;;;;0.87;0.60;;;;;;;;;;5096439;28;20459;-73
2021/12/29 04:16:47;;;;;;;1.53;0.57;;;;;;;;;;5096485;28;20408;-73
2021/12/29 04:19:17;;;;;;;0.70;0.50;;;;;;;;;;5096485;28;20436;-73
2021/12/29 04:21:45;;;;;;;2.87;0.60;;;;;;;;;;5096387;28;20399;-74
2021/12/29 04:24:11;;;;;;;1.87;0.50;;;;;;;;;;5096259;28;20392;-73
2021/12/29 04:26:38;;;;;;;0.87;0.60;;;;;;;;;;5096116;28;20406;-73
2021/12/29 04:29:05;;;;;;;1.10;0.43;;;;;;;;;;5096379;28;20435;-73
2021/12/29 04:31:31;;;;;;;2.30;0.67;;;;;;;;;;5094990;28;20435;-74
2021/12/29 04:33:57;;;;;;;0.80;0.50;;;;;;;;;;5096077;28;20471;-73
2021/12/29 04:36:26;;;;;;;0.90;0.50;;;;;;;;;;5095999;28;20922;-73
2021/12/29 04:38:53;;;;;;;0.70;0.50;;;;;;;;;;5096007;28;20396;-73
2021/12/29 04:41:19;;;;;;;1.00;0.70;;;;;;;;;;5096127;28;20443;-73
2021/12/29 04:43:45;;;;;;;1.23;0.60;;;;;;;;;;5095964;28;20411;-73
2021/12/29 04:46:16;;;;;;;0.60;0.50;;;;;;;;;;5095906;28;20412;-73
2021/12/29 04:48:49;;;;;;;0.90;0.50;;;;;;;;;;5094684;28;20456;-73
2021/12/29 04:51:22;;;;;;;2.50;0.70;;;;;;;;;;5094593;28;20411;-73
2021/12/29 04:53:48;;;;;;;0.70;0.50;;;;;;;;;;5095758;28;20470;-74
2021/12/29 04:56:15;;;;;;;0.60;0.50;;;;;;;;;;5095636;28;20404;-74
2021/12/29 04:58:41;;;;;;;0.63;0.50;;;;;;;;;;5095443;28;20460;-73
2021/12/29 05:01:07;;;;;;;1.10;0.63;;;;;;;;;;5095591;28;20395;-73
2021/12/29 05:03:36;;;;;;;0.83;0.57;;;;;;;;;;5095723;28;20407;-73
2021/12/29 05:08:31;;;;;;;1.60;0.67;;;;;;;;;;5095602;28;20931;-74
2021/12/29 05:11:01;;;;;;;1.00;0.60;;;;;;;;;;5095503;28;20396;-73
2021/12/29 05:13:28;;;;;;;1.17;0.70;;;;;;;;;;5094098;28;20578;-74
2021/12/29 05:15:55;;;;;;;1.17;0.67;;;;;;;;;;5095281;28;20459;-73
2021/12/29 05:18:22;;;;;;;0.80;0.60;;;;;;;;;;5094663;28;20451;-74
2021/12/29 05:20:48;;;;;;;1.17;0.60;;;;;;;;;;5095355;28;20415;-75
2021/12/29 05:23:14;;;;;;;0.60;0.60;;;;;;;;;;5093964;28;20412;-75
2021/12/29 05:25:40;;;;;;;0.60;0.50;;;;;;;;;;5095174;28;20407;-74
2021/12/29 05:28:07;;;;;;;2.33;0.70;;;;;;;;;;5095174;28;20407;-74
2021/12/29 05:30:33;;;;;;;0.70;0.50;;;;;;;;;;5095025;28;20399;-73
2021/12/29 05:32:59;;;;;;;1.20;0.70;;;;;;;;;;5094899;28;20521;-73
2021/12/29 05:35:25;;;;;;;0.70;0.60;;;;;;;;;;5094734;28;20428;-74
2021/12/29 05:37:52;;;;;;;1.27;0.80;;;;;;;;;;5094829;28;20505;-74
2021/12/29 05:40:18;;;;;;;1.40;0.67;;;;;;;;;;5094896;28;20391;-74
2021/12/29 05:42:44;;;;;;;1.00;0.70;;;;;;;;;;5094757;28;20407;-72
2021/12/29 05:45:11;;;;;;;3.50;0.70;;;;;;;;;;5093430;28;20418;-73
2021/12/29 05:47:37;;;;;;;1.87;0.70;;;;;;;;;;5094789;28;20483;-73
2021/12/29 05:50:05;;;;;;;2.03;0.70;;;;;;;;;;5094633;28;20454;-74
2021/12/29 05:52:31;;;;;;;2.00;1.20;;;;;;;;;;5093331;28;20425;-75
2021/12/29 05:54:57;;;;;;;2.47;0.70;;;;;;;;;;5094552;28;20416;-74
2021/12/29 05:57:23;;;;;;;1.63;0.70;;;;;;;;;;5094605;28;20395;-74
2021/12/29 05:59:49;;;;;;;1.20;0.80;;;;;;;;;;5094343;28;20970;-72
2021/12/29 06:02:15;;;;;;;1.20;0.80;;;;;;;;;;5093227;28;20415;-73
2021/12/29 06:04:41;;;;;;;1.93;0.70;;;;;;;;;;5093033;28;20435;-74
2021/12/29 06:07:07;;;;;;;1.13;0.70;;;;;;;;;;5094220;28;20440;-73
2021/12/29 06:09:33;;;;;;;1.33;0.90;;;;;;;;;;5094199;28;20479;-74
2021/12/29 06:11:59;;;;;;;2.30;0.90;;;;;;;;;;5094246;28;20511;-73
2021/12/29 06:14:25;;;;;;;1.70;1.00;;;;;;;;;;5092866;28;20482;-74
2021/12/29 06:16:51;;;;;;;1.13;0.97;;;;;;;;;;5092802;28;20490;-73
2021/12/29 06:19:17;;;;;;;1.57;0.83;;;;;;;;;;5092751;28;20893;-74
2021/12/29 06:21:43;;;;;;;1.80;1.00;;;;;;;;;;5092873;28;20415;-74
2021/12/29 06:24:09;;;;;;;2.00;1.40;;;;;;;;;;5094143;28;20412;-74
2021/12/29 06:26:35;;;;;;;2.10;0.80;;;;;;;;;;5092745;28;20502;-74
2021/12/29 06:29:01;;;;;;;0.80;0.80;;;;;;;;;;5093049;28;20917;-72
2021/12/29 06:31:28;;;;;;;1.50;1.10;;;;;;;;;;5093928;28;20400;-73
2021/12/29 06:33:54;;;;;;;3.90;0.93;;;;;;;;;;5093769;28;20954;-74
2021/12/29 06:36:20;;;;;;;1.00;0.90;;;;;;;;;;5093575;28;20428;-74
2021/12/29 06:38:46;;;;;;;2.50;1.00;;;;;;;;;;5093553;28;20415;-73
2021/12/29 06:41:12;;;;;;;2.77;1.33;;;;;;;;;;5093777;28;20427;-73
2021/12/29 06:43:38;;;;;;;2.13;1.00;;;;;;;;;;5093748;28;20497;-74
2021/12/29 06:46:04;;;;;;;5.13;1.10;;;;;;;;;;5093611;28;20491;-73
2021/12/29 06:48:30;;;;;;;1.70;0.70;;;;;;;;;;5092374;28;20511;-73
2021/12/29 06:50:56;;;;;;;1.63;0.90;;;;;;;;;;5093665;28;20408;-73
2021/12/29 06:53:22;;;;;;;1.47;0.80;;;;;;;;;;5093516;28;20495;-74
2021/12/29 06:55:48;;;;;;;2.73;0.90;;;;;;;;;;5093476;28;20407;-73
2021/12/29 06:58:14;;;;;;;2.10;1.00;;;;;;;;;;5093143;28;20516;-73
2021/12/29 07:00:40;;;;;;;1.23;1.07;;;;;;;;;;5092258;28;20963;-73
2021/12/29 07:03:06;;;;;;;2.27;0.90;;;;;;;;;;5093423;28;20404;-74
2021/12/29 07:05:33;;;;;;;2.03;0.80;;;;;;;;;;5093244;28;20934;-73
2021/12/29 07:07:59;;;;;;;3.67;1.00;;;;;;;;;;5093356;28;20403;-74
2021/12/29 07:10:25;;;;;;;1.87;0.90;;;;;;;;;;5093338;28;20815;-74
2021/12/29 07:12:51;;;;;;;1.90;1.63;;;;;;;;;;5093211;28;20451;-74
2021/12/29 07:15:17;;;;;;;2.40;0.80;;;;;;;;;;5093111;28;20872;-74
2021/12/29 07:17:44;;;;;;;0.70;0.70;;;;;;;;;;5093308;28;20400;-72
2021/12/29 07:20:10;;;;;;;7.30;0.90;;;;;;;;;;5093264;28;20495;-74
2021/12/29 07:22:36;;;;;;;0.90;0.80;;;;;;;;;;5092027;28;20424;-73
2021/12/29 07:25:02;;;;;;;2.70;0.83;;;;;;;;;;5093184;28;20408;-74
2021/12/29 07:27:28;;;;;;;5.30;0.77;;;;;;;;;;5093085;28;20772;-74
2021/12/29 07:29:54;;;;;;;1.43;0.80;;;;;;;;;;5093297;28;20468;-73
2021/12/29 07:32:20;;;;;;;2.17;1.40;;;;;;;;;;5093035;28;20889;-74
2021/12/29 07:34:46;;;;;;;1.73;1.00;;;;;;;;;;5092943;28;20953;-73
2021/12/29 07:37:14;;;;;;;1.43;1.33;;;;;;;;;;5092947;28;20948;-74
2021/12/29 07:39:40;;;;;;;1.20;1.00;;;;;;;;;;5092262;28;20404;-74
2021/12/29 07:42:07;;;;;;;1.57;1.37;;;;;;;;;;5097124;28;20907;-73
2021/12/29 07:44:33;;;;;;;3.07;1.07;;;;;;;;;;5097010;28;20403;-73
2021/12/29 07:46:59;;;;;;;1.47;1.00;;;;;;;;;;5095885;28;20494;-73
2021/12/29 07:49:26;;;;;;;0.87;0.77;;;;;;;;;;5097131;28;20411;-73
2021/12/29 07:51:52;;;;;;;2.67;1.17;;;;;;;;;;5096974;28;20438;-73
2021/12/29 07:54:19;;;;;;;0.60;0.57;;;;;;;;;;5095591;28;20478;-73
2021/12/29 07:56:45;;;;;;;2.30;0.97;;;;;;;;;;5095519;28;20447;-73
2021/12/29 07:59:11;;;;;;;3.50;1.20;;;;;;;;;;5096673;28;20491;-73
2021/12/29 08:01:39;;;;;;;1.57;1.20;;;;;;;;;;5095499;28;20473;-74
2021/12/29 08:04:05;;;;;;;4.33;1.27;;;;;;;;;;5096633;28;20415;-74
2021/12/29 08:06:31;;;;;;;1.40;1.23;;;;;;;;;;5096736;28;20915;-73
2021/12/29 08:08:57;;;;;;;3.00;1.07;;;;;;;;;;5096665;28;20410;-74
2021/12/29 08:11:24;;;;;;;2.40;1.00;;;;;;;;;;5096536;28;20435;-74
2021/12/29 08:13:50;;;;;;;3.00;1.17;;;;;;;;;;5095169;28;20994;-73
2021/12/29 08:16:16;;;;;;;1.30;1.00;;;;;;;;;;5095263;28;20419;-71
2021/12/29 08:18:42;;;;;;;2.20;1.00;;;;;;;;;;5095120;28;20416;-73
2021/12/29 08:21:08;;;;;;;1.50;1.30;;;;;;;;;;5096477;28;20432;-72
2021/12/29 08:23:34;;;;;;;2.47;1.40;;;;;;;;;;5095157;28;20911;-72
2021/12/29 08:26:01;;;;;;;2.47;1.03;;;;;;;;;;5096383;28;20407;-72
2021/12/29 08:28:27;;;;;;;0.77;0.73;;;;;;;;;;5096319;28;20414;-72
2021/12/29 08:30:54;;;;;;;1.73;1.00;;;;;;;;;;5096260;28;20407;-72
2021/12/29 08:33:21;;;;;;;4.17;1.00;;;;;;;;;;5096087;28;20478;-73
2021/12/29 08:35:47;;;;;;;2.43;0.97;;;;;;;;;;5095977;28;20477;-72
2021/12/29 08:38:15;;;;;;;1.53;0.90;;;;;;;;;;5096143;28;20403;-72
2021/12/29 08:40:41;;;;;;;1.10;0.90;;;;;;;;;;5096093;28;20408;-72
2021/12/29 08:43:07;;;;;;;2.03;1.60;;;;;;;;;;5096022;28;20457;-72
2021/12/29 08:45:34;;;;;;;1.63;1.10;;;;;;;;;;5095989;28;20411;-71
2021/12/29 08:48:00;;;;;;;0.90;0.90;;;;;;;;;;5095897;28;20400;-72
2021/12/29 08:50:29;;;;;;;1.20;1.10;;;;;;;;;;5095954;28;20403;-72
2021/12/29 08:52:56;;;;;;;1.87;1.13;;;;;;;;;;5094559;28;20886;-72
2021/12/29 08:55:22;;;;;;;1.50;1.40;;;;;;;;;;5094515;28;20452;-72
2021/12/29 08:57:48;;;;;;;2.10;1.40;;;;;;;;;;5095434;28;20439;-72
2021/12/29 09:00:16;;;;;;;1.30;1.17;;;;;;;;;;5094536;28;20466;-72
2021/12/29 09:02:42;;;;;;;2.90;0.90;;;;;;;;;;5095572;28;20419;-72
2021/12/29 09:05:09;;;;;;;3.40;1.00;;;;;;;;;;5095326;28;20792;-72
2021/12/29 09:07:35;;;;;;;1.67;1.17;;;;;;;;;;5094340;28;20416;-72
2021/12/29 09:10:04;;;;;;;1.07;0.97;;;;;;;;;;5095515;28;20758;-73
2021/12/29 09:12:30;;;;;;;5.17;2.30;;;;;;;;;;5095464;28;20407;-72
2021/12/29 09:14:56;;;;;;;2.20;1.30;;;;;;;;;;5095451;28;20412;-73
2021/12/29 09:17:22;;;;;;;1.30;0.90;;;;;;;;;;5093930;28;20412;-71
2021/12/29 09:19:48;;;;;;;2.33;1.20;;;;;;;;;;5095270;28;20426;-72
2021/12/29 09:22:14;;;;;;;1.60;1.30;;;;;;;;;;5095255;28;20407;-73
2021/12/29 09:24:42;;;;;;;1.83;1.50;;;;;;;;;;5095138;28;20408;-74
2021/12/29 09:27:08;;;;;;;1.50;1.10;;;;;;;;;;5095222;28;20400;-73
2021/12/29 09:29:34;;;;;;;1.30;1.03;;;;;;;;;;5095125;28;20408;-73
2021/12/29 09:32:01;;;;;;;1.67;1.20;;;;;;;;;;5095085;28;20396;-74
2021/12/29 09:34:27;;;;;;;3.57;1.40;;;;;;;;;;5093619;28;20595;-74
2021/12/29 09:36:53;;;;;;;1.57;1.17;;;;;;;;;;5094727;28;20435;-72
2021/12/29 09:39:19;;;;;;;1.43;1.00;;;;;;;;;;5094770;28;20394;-73
2021/12/29 09:41:45;;;;;;;2.90;1.10;;;;;;;;;;5094935;28;20906;-73
2021/12/29 09:44:12;;;;;;;3.93;1.40;;;;;;;;;;5093523;28;20415;-73
2021/12/29 09:46:38;;;;;;;1.83;1.43;;;;;;;;;;5094762;28;20411;-73
2021/12/29 09:49:05;;;;;;;4.93;2.00;;;;;;;;;;5094773;28;20530;-73
2021/12/29 09:51:31;;;;;;;2.10;0.93;;;;;;;;;;5094709;28;20423;-74
2021/12/29 09:53:57;;;;;;;4.13;1.63;;;;;;;;;;5093189;28;20848;-74
2021/12/29 09:56:26;;;;;;;3.00;1.60;;;;;;;;;;5093252;28;20435;-73
2021/12/29 09:58:52;;;;;;;5.63;1.30;;;;;;;;;;5092866;28;20934;-74
2021/12/29 10:01:19;;;;;;;1.40;1.30;;;;;;;;;;5093349;28;20427;-72
2021/12/29 10:03:45;;;;;;;2.77;1.23;;;;;;;;;;5093019;28;20411;-73
2021/12/29 10:06:12;;;;;;;1.83;1.47;;;;;;;;;;5093093;28;20435;-74
2021/12/29 10:08:42;;;;;;;1.20;1.07;;;;;;;;;;5093042;28;20494;-74
2021/12/29 10:11:18;;;;;;;2.33;1.53;;;;;;;;;;5093011;28;20461;-73
2021/12/29 10:13:46;;;;;;;3.20;1.40;;;;;;;;;;5092792;28;20476;-74
2021/12/29 10:16:14;;;;;;;3.70;1.73;;;;;;;;;;5094309;28;20404;-73
2021/12/29 10:18:43;;;;;;;1.80;1.70;;;;;;;;;;5094074;28;20424;-72
2021/12/29 10:21:13;;;;;;;3.67;1.60;;;;;;;;;;5094129;28;20399;-73
2021/12/29 10:23:41;;;;;;;5.50;2.00;;;;;;;;;;5092680;28;20415;-71
2021/12/29 10:26:09;;;;;;;2.63;1.40;;;;;;;;;;5094036;28;20412;-72
2021/12/29 10:28:36;;;;;;;1.50;1.40;;;;;;;;;;5092806;28;20415;-73
2021/12/29 10:31:11;;;;;;;2.63;1.60;;;;;;;;;;5093947;28;20875;-72
2021/12/29 10:33:45;;;;;;;2.63;1.47;;;;;;;;;;5093889;28;20844;-73
2021/12/29 10:36:12;;;;;;;3.47;1.90;;;;;;;;;;5093848;28;20455;-71
2021/12/29 10:38:38;;;;;;;1.63;1.53;;;;;;;;;;5093718;28;20404;-73
2021/12/29 10:41:04;;;;;;;1.77;1.27;;;;;;;;;;5093883;28;20426;-74
2021/12/29 10:43:30;;;;;;;4.57;1.60;;;;;;;;;;5093749;28;20460;-74
2021/12/29 10:45:59;;;;;;;2.30;1.83;;;;;;;;;;5093594;28;20502;-73
2021/12/29 10:48:27;;;;;;;1.80;1.60;;;;;;;;;;5093801;28;20865;-73
2021/12/29 10:50:54;;;;;;;3.20;2.20;;;;;;;;;;5092522;28;20791;-74
2021/12/29 10:53:21;;;;;;;1.43;1.13;;;;;;;;;;5093633;28;20479;-74
2021/12/29 10:55:47;;;;;;;1.83;1.67;;;;;;;;;;5093621;28;20407;-74
2021/12/29 10:58:15;;;;;;;5.47;1.40;;;;;;;;;;5093226;28;20465;-74
2021/12/29 11:00:44;;;;;;;3.13;1.70;;;;;;;;;;5093494;28;20404;-74
2021/12/29 11:03:21;;;;;;;2.90;1.53;;;;;;;;;;5092171;28;20416;-74
2021/12/29 11:05:52;;;;;;;5.57;2.00;;;;;;;;;;5093347;28;20445;-73
2021/12/29 11:08:18;;;;;;;8.00;2.33;;;;;;;;;;5093580;28;20400;-74
2021/12/29 11:10:45;;;;;;;2.30;1.73;;;;;;;;;;5093396;28;20407;-73
2021/12/29 11:13:12;;;;;;;2.37;1.60;;;;;;;;;;5093157;28;20451;-72
2021/12/29 11:15:41;;;;;;;2.70;1.37;;;;;;;;;;5091408;28;20767;-74
2021/12/29 11:18:08;;;;;;;2.33;1.20;;;;;;;;;;5091909;28;20404;-72
2021/12/29 11:20:35;;;;;;;1.43;1.33;;;;;;;;;;5092005;28;20408;-72
2021/12/29 11:23:05;;;;;;;2.47;1.33;;;;;;;;;;5093290;28;20926;-72
2021/12/29 11:25:32;;;;;;;2.37;2.03;;;;;;;;;;5091877;28;20404;-73
2021/12/29 11:28:00;;;;;;;2.20;1.30;;;;;;;;;;5091909;28;20507;-72
2021/12/29 11:30:26;;;;;;;2.60;1.13;;;;;;;;;;5093188;28;20474;-73
2021/12/29 11:32:53;;;;;;;1.33;1.23;;;;;;;;;;5093176;28;20447;-72
2021/12/29 11:35:20;;;;;;;1.67;1.00;;;;;;;;;;5092940;28;20432;-73
2021/12/29 11:37:50;;;;;;;1.60;1.27;;;;;;;;;;5093110;28;20478;-73
2021/12/29 11:40:19;;;;;;;1.57;1.47;;;;;;;;;;5091777;28;20408;-73
2021/12/29 11:42:45;;;;;;;3.03;1.10;;;;;;;;;;5091622;28;20426;-73
2021/12/29 11:45:13;;;;;;;3.63;1.30;;;;;;;;;;5091631;28;20423;-73
2021/12/29 11:47:39;;;;;;;3.30;0.97;;;;;;;;;;5093038;28;20408;-74
2021/12/29 11:50:06;;;;;;;1.43;0.90;;;;;;;;;;5092928;28;20423;-72
2021/12/29 11:52:50;;;;;;;1.90;1.27;;;;;;;;;;5091530;28;20489;-72
2021/12/29 11:55:19;;;;;;;2.70;1.37;;;;;;;;;;5092858;28;20712;-72
2021/12/29 11:57:45;;;;;;;2.63;1.23;;;;;;;;;;5092599;28;20491;-72
2021/12/29 12:00:17;;;;;;;1.17;1.17;;;;;;;;;;5092820;28;20419;-72
2021/12/29 12:02:43;;;;;;;3.87;1.47;;;;;;;;;;5091535;28;20448;-74
2021/12/29 12:05:10;;;;;;;2.10;1.27;;;;;;;;;;5091534;28;20518;-75
2021/12/29 12:07:37;;;;;;;2.40;1.10;;;;;;;;;;5092946;28;20408;-75
2021/12/29 12:10:11;;;;;;;1.03;0.93;;;;;;;;;;5091442;28;20539;-74
2021/12/29 12:12:39;;;;;;;2.23;1.20;;;;;;;;;;5091603;28;20510;-74
2021/12/29 12:15:11;;;;;;;2.13;1.27;;;;;;;;;;5092724;28;20410;-74
2021/12/29 12:17:38;;;;;;;5.70;1.50;;;;;;;;;;5092743;28;20411;-74
2021/12/29 12:20:04;;;;;;;5.20;1.20;;;;;;;;;;5092767;28;20424;-75
2021/12/29 12:22:40;;;;;;;1.30;1.10;;;;;;;;;;5092742;28;20407;-75
2021/12/29 12:25:06;;;;;;;1.33;1.23;;;;;;;;;;5092676;28;20767;-74
2021/12/29 12:27:32;;;;;;;2.90;1.37;;;;;;;;;;5095749;28;20766;-75
2021/12/29 12:30:04;;;;;;;3.57;1.60;;;;;;;;;;5096294;28;20809;-74
2021/12/29 12:32:40;;;;;;;4.70;1.80;;;;;;;;;;5094804;28;20997;-75
2021/12/29 12:35:06;;;;;;;1.47;1.20;;;;;;;;;;5096219;28;20552;-74
2021/12/29 12:37:36;;;;;;;3.50;1.63;;;;;;;;;;5095964;28;20518;-75
2021/12/29 12:40:05;;;;;;;2.00;1.63;;;;;;;;;;5096038;28;20404;-74
2021/12/29 12:42:31;;;;;;;2.53;1.40;;;;;;;;;;5094770;28;20530;-75
2021/12/29 12:45:01;;;;;;;2.80;1.63;;;;;;;;;;5095995;28;20412;-75
2021/12/29 12:47:31;;;;;;;2.37;1.20;;;;;;;;;;5094813;28;20449;-73
2021/12/29 12:49:58;;;;;;;1.50;1.40;;;;;;;;;;5094647;28;20497;-75
2021/12/29 12:52:25;;;;;;;6.00;1.60;;;;;;;;;;5094691;28;20818;-73
2021/12/29 12:54:53;;;;;;;4.00;1.53;;;;;;;;;;5095739;28;20471;-75
2021/12/29 12:57:37;;;;;;;4.73;1.60;;;;;;;;;;5095696;28;20404;-75
2021/12/29 13:00:08;;;;;;;2.80;1.47;;;;;;;;;;5095558;28;20589;-75
2021/12/29 13:02:39;;;;;;;4.30;1.67;;;;;;;;;;5095780;28;20941;-74
2021/12/29 13:05:13;;;;;;;7.50;2.57;;;;;;;;;;5094164;28;20481;-74
2021/12/29 13:07:40;;;;;;;3.73;1.70;;;;;;;;;;5095650;28;20400;-74
2021/12/29 13:10:08;;;;;;;4.00;1.50;;;;;;;;;;5095437;28;20404;-74
2021/12/29 13:12:36;;;;;;;4.40;1.73;;;;;;;;;;5094195;28;20408;-74
2021/12/29 13:15:13;;;;;;;7.53;2.23;;;;;;;;;;5095426;28;20419;-75
2021/12/29 13:17:43;;;;;;;5.33;2.30;;;;;;;;;;5094109;28;20502;-73
2021/12/29 13:20:10;;;;;;;5.20;1.77;;;;;;;;;;5095356;28;20409;-74
2021/12/29 13:22:36;;;;;;;5.30;1.93;;;;;;;;;;5095319;28;20461;-75
2021/12/29 13:25:24;;;;;;;3.93;2.33;;;;;;;;;;5095231;28;20404;-75
2021/12/29 13:28:02;;;;;;;8.40;2.13;;;;;;;;;;5095244;28;20391;-73
2021/12/29 13:30:41;;;;;;;5.57;2.03;;;;;;;;;;5095263;28;20407;-73
2021/12/29 13:33:07;;;;;;;4.87;2.33;;;;;;;;;;5096317;28;20455;-75
2021/12/29 13:35:37;;;;;;;2.60;1.67;;;;;;;;;;5100780;28;20519;-74
2021/12/29 13:38:05;;;;;;;5.00;2.03;;;;;;;;;;5094898;28;20786;-76
2021/12/29 13:40:39;;;;;;;5.27;1.73;;;;;;;;;;5094911;28;20408;-74
2021/12/29 13:43:28;;;;;;;3.87;1.67;;;;;;;;;;5094823;28;20882;-73
2021/12/29 13:45:55;;;;;;;5.87;1.60;;;;;;;;;;5080765;28;20498;-75
2021/12/29 13:48:26;;;;;;;2.50;1.93;;;;;;;;;;5093518;28;20411;-75
2021/12/29 13:50:55;;;;;;;4.73;2.27;;;;;;;;;;5093515;28;20910;-75
2021/12/29 13:53:23;;;;;;;2.63;1.60;;;;;;;;;;5094569;28;20796;-75
2021/12/29 13:55:49;;;;;;;3.20;1.90;;;;;;;;;;5094574;28;20412;-76
2021/12/29 13:58:15;;;;;;;5.27;1.80;;;;;;;;;;5094304;28;20470;-75
2021/12/29 14:00:42;;;;;;;5.33;1.80;;;;;;;;;;5093396;28;20407;-73
2021/12/29 14:03:08;;;;;;;4.30;1.77;;;;;;;;;;5093177;28;20412;-75
2021/12/29 14:05:44;;;;;;;3.63;1.80;;;;;;;;;;5094512;28;20428;-74
2021/12/29 14:08:12;;;;;;;1.67;1.57;;;;;;;;;;5094582;28;20388;-74
2021/12/29 14:10:39;;;;;;;1.43;1.33;;;;;;;;;;5094359;28;20490;-74
2021/12/29 14:13:12;;;;;;;2.80;1.87;;;;;;;;;;5094224;28;20453;-76
2021/12/29 14:15:39;;;;;;;1.80;1.30;;;;;;;;;;5094205;28;20407;-74
2021/12/29 14:18:19;;;;;;;3.50;1.73;;;;;;;;;;5094055;28;20498;-75
2021/12/29 14:20:45;;;;;;;3.53;1.60;;;;;;;;;;5094366;28;20503;-75
2021/12/29 14:23:11;;;;;;;3.00;1.67;;;;;;;;;;5092816;28;20416;-76
2021/12/29 14:25:39;;;;;;;2.20;1.10;;;;;;;;;;5093872;28;20392;-74
2021/12/29 14:28:12;;;;;;;3.30;1.53;;;;;;;;;;5092726;28;20412;-76
2021/12/29 14:30:42;;;;;;;4.40;1.97;;;;;;;;;;5093999;28;20770;-76
2021/12/29 14:33:08;;;;;;;3.37;1.60;;;;;;;;;;5092758;28;20459;-76
2021/12/29 14:35:34;;;;;;;2.00;1.30;;;;;;;;;;5093715;28;20489;-75
2021/12/29 14:38:07;;;;;;;3.50;1.40;;;;;;;;;;5093930;28;20832;-75
2021/12/29 14:40:35;;;;;;;2.47;1.23;;;;;;;;;;5093836;28;20412;-73
2021/12/29 14:43:08;;;;;;;1.67;1.43;;;;;;;;;;5092582;28;20515;-76
2021/12/29 14:45:35;;;;;;;4.20;1.50;;;;;;;;;;5092392;28;20499;-75
2021/12/29 14:48:06;;;;;;;1.93;1.30;;;;;;;;;;5093629;28;20453;-76
2021/12/29 14:50:37;;;;;;;2.20;1.30;;;;;;;;;;5092858;28;20436;-76